createdAt,value
2018-11-04T00:00:32.986Z,0.00
2018-11-04T00:01:33.001Z,0.00
2018-11-04T00:02:33.003Z,0.00
2018-11-04T00:03:32.967Z,0.00
2018-11-04T00:04:32.967Z,0.00
2018-11-04T00:05:32.968Z,0.00
2018-11-04T00:06:32.954Z,0.00
2018-11-04T00:07:32.992Z,0.00
2018-11-04T00:08:32.955Z,0.00
2018-11-04T00:09:32.952Z,0.00
2018-11-04T00:10:32.951Z,0.00
2018-11-04T00:11:32.943Z,0.00
2018-11-04T00:12:32.968Z,0.00
2018-11-04T00:13:32.931Z,0.00
2018-11-04T00:14:32.935Z,0.00
2018-11-04T00:15:32.927Z,0.00
2018-11-04T00:16:32.927Z,0.00
2018-11-04T00:17:32.958Z,0.00
2018-11-04T00:18:32.911Z,0.00
2018-11-04T00:19:32.913Z,0.00
2018-11-04T00:20:32.911Z,0.00
2018-11-04T00:21:32.904Z,0.00
2018-11-04T00:22:32.933Z,0.00
2018-11-04T00:23:32.927Z,0.00
2018-11-04T00:24:32.896Z,0.00
2018-11-04T00:25:32.893Z,0.00
2018-11-04T00:26:32.883Z,0.00
2018-11-04T00:27:32.883Z,0.00
2018-11-04T00:28:32.907Z,0.00
2018-11-04T00:29:32.928Z,0.00
2018-11-04T00:30:32.862Z,0.00
2018-11-04T00:31:32.868Z,0.00
2018-11-04T00:32:32.870Z,0.00
2018-11-04T00:33:32.900Z,0.00
2018-11-04T00:34:32.904Z,0.00
2018-11-04T00:35:32.855Z,0.00
2018-11-04T00:36:32.848Z,0.00
2018-11-04T00:37:32.850Z,0.00
2018-11-04T00:38:32.871Z,0.00
2018-11-04T00:39:32.840Z,0.00
2018-11-04T00:40:32.842Z,0.00
2018-11-04T00:41:32.836Z,0.00
2018-11-04T00:42:32.832Z,0.00
2018-11-04T00:43:32.856Z,0.00
2018-11-04T00:44:32.824Z,0.00
2018-11-04T00:45:32.862Z,0.00
2018-11-04T00:46:32.815Z,0.00
2018-11-04T00:47:32.839Z,0.00
2018-11-04T00:48:32.845Z,0.00
2018-11-04T00:49:32.809Z,0.00
2018-11-04T00:50:32.802Z,0.00
2018-11-04T00:51:32.799Z,0.00
2018-11-04T00:52:32.824Z,0.00
2018-11-04T00:53:32.794Z,0.00
2018-11-04T00:54:32.784Z,0.00
2018-11-04T00:55:32.813Z,0.00
2018-11-04T00:56:32.779Z,0.00
2018-11-04T00:57:32.776Z,0.00
2018-11-04T00:58:32.809Z,0.00
2018-11-04T00:59:32.768Z,0.00
2018-11-04T01:00:32.765Z,0.00
2018-11-04T01:01:32.787Z,0.00
2018-11-04T01:02:32.757Z,0.00
2018-11-04T01:03:32.788Z,0.00
2018-11-04T01:04:32.752Z,0.00
2018-11-04T01:05:32.749Z,0.00
2018-11-04T01:06:32.745Z,0.00
2018-11-04T01:07:32.765Z,0.00
2018-11-04T01:08:32.738Z,0.00
2018-11-04T01:09:32.732Z,0.00
2018-11-04T01:10:32.729Z,0.00
2018-11-04T01:11:32.724Z,0.00
2018-11-04T01:12:32.756Z,0.00
2018-11-04T01:13:32.717Z,0.00
2018-11-04T01:14:32.712Z,0.00
2018-11-04T01:15:32.712Z,0.00
2018-11-04T01:16:32.709Z,0.00
2018-11-04T01:17:32.732Z,0.00
2018-11-04T01:18:32.732Z,0.00
2018-11-04T01:19:32.701Z,0.00
2018-11-04T01:20:32.693Z,0.00
2018-11-04T01:21:32.689Z,0.00
2018-11-04T01:22:32.685Z,0.00
2018-11-04T01:23:32.710Z,0.00
2018-11-04T01:24:32.781Z,0.00
2018-11-04T01:25:32.677Z,0.00
2018-11-04T01:26:32.674Z,0.00
2018-11-04T01:27:32.669Z,0.00
2018-11-04T01:28:32.695Z,0.00
2018-11-04T01:29:32.662Z,0.00
2018-11-04T01:30:32.657Z,0.00
2018-11-04T01:31:32.655Z,0.00
2018-11-04T01:32:32.651Z,0.00
2018-11-04T01:33:32.673Z,0.00
2018-11-04T01:34:32.641Z,0.00
2018-11-04T01:35:32.638Z,0.00
2018-11-04T01:36:32.650Z,0.00
2018-11-04T01:37:32.634Z,0.00
2018-11-04T01:38:32.657Z,0.00
2018-11-04T01:39:32.625Z,0.00
2018-11-04T01:40:32.617Z,0.00
2018-11-04T01:41:32.617Z,0.00
2018-11-04T01:42:32.613Z,0.00
2018-11-04T01:43:32.642Z,0.00
2018-11-04T01:44:32.607Z,0.00
2018-11-04T01:45:32.602Z,0.00
2018-11-04T01:46:32.598Z,0.00
2018-11-04T01:47:32.598Z,0.00
2018-11-04T01:48:32.623Z,0.00
2018-11-04T01:49:32.590Z,0.00
2018-11-04T01:50:32.588Z,0.00
2018-11-04T01:51:32.583Z,0.00
2018-11-04T01:52:32.578Z,0.00
2018-11-04T01:53:32.607Z,0.00
2018-11-04T01:54:32.569Z,0.00
2018-11-04T01:55:32.565Z,0.00
2018-11-04T01:56:32.566Z,0.00
2018-11-04T01:57:32.558Z,0.00
2018-11-04T01:58:32.586Z,0.00
2018-11-04T01:59:32.550Z,0.00
2018-11-04T02:00:32.551Z,0.00
2018-11-04T02:01:32.546Z,0.00
2018-11-04T02:02:32.544Z,0.00
2018-11-04T02:03:32.733Z,0.00
2018-11-04T02:04:32.532Z,0.00
2018-11-04T02:05:32.523Z,0.00
2018-11-04T02:06:32.528Z,0.00
2018-11-04T02:07:32.522Z,0.00
2018-11-04T02:08:32.547Z,0.00
2018-11-04T02:09:32.516Z,0.00
2018-11-04T02:10:32.511Z,0.00
2018-11-04T02:11:32.509Z,0.00
2018-11-04T02:12:32.506Z,0.00
2018-11-04T02:13:32.531Z,0.00
2018-11-04T02:14:32.495Z,0.00
2018-11-04T02:15:32.495Z,0.00
2018-11-04T02:16:32.491Z,0.00
2018-11-04T02:17:32.488Z,0.00
2018-11-04T02:18:32.513Z,0.00
2018-11-04T02:19:32.478Z,0.00
2018-11-04T02:20:32.475Z,0.00
2018-11-04T02:21:32.473Z,0.00
2018-11-04T02:22:32.467Z,0.00
2018-11-04T02:23:32.492Z,0.00
2018-11-04T02:24:32.459Z,0.00
2018-11-04T02:25:32.456Z,0.00
2018-11-04T02:26:32.452Z,0.00
2018-11-04T02:27:32.454Z,0.00
2018-11-04T02:28:32.468Z,0.00
2018-11-04T02:29:32.446Z,0.00
2018-11-04T02:30:32.441Z,0.00
2018-11-04T02:31:32.436Z,0.00
2018-11-04T02:32:32.434Z,0.00
2018-11-04T02:33:32.456Z,0.00
2018-11-04T02:34:32.451Z,0.00
2018-11-04T02:35:32.423Z,0.00
2018-11-04T02:36:32.416Z,0.00
2018-11-04T02:37:32.410Z,0.00
2018-11-04T02:38:32.407Z,0.00
2018-11-04T02:39:32.434Z,0.00
2018-11-04T02:40:32.400Z,0.00
2018-11-04T02:41:32.400Z,0.00
2018-11-04T02:42:32.393Z,0.00
2018-11-04T02:43:32.392Z,0.00
2018-11-04T02:44:32.417Z,0.00
2018-11-04T02:45:32.383Z,0.00
2018-11-04T02:46:32.378Z,0.00
2018-11-04T02:47:32.377Z,0.00
2018-11-04T02:48:32.372Z,0.00
2018-11-04T02:49:32.397Z,0.00
2018-11-04T02:50:32.364Z,0.00
2018-11-04T02:51:32.365Z,0.00
2018-11-04T02:52:32.357Z,0.00
2018-11-04T02:53:32.361Z,0.00
2018-11-04T02:54:32.377Z,0.00
2018-11-04T02:55:32.346Z,0.00
2018-11-04T02:56:32.345Z,0.00
2018-11-04T02:57:32.347Z,0.00
2018-11-04T02:58:32.340Z,0.00
2018-11-04T02:59:32.361Z,0.00
2018-11-04T03:00:32.329Z,0.00
2018-11-04T03:01:32.322Z,0.00
2018-11-04T03:02:32.324Z,0.00
2018-11-04T03:03:32.317Z,0.00
2018-11-04T03:04:32.345Z,0.00
2018-11-04T03:05:32.309Z,0.00
2018-11-04T03:06:32.302Z,0.00
2018-11-04T03:07:32.300Z,0.00
2018-11-04T03:08:32.300Z,0.00
2018-11-04T03:09:32.327Z,0.00
2018-11-04T03:10:32.292Z,0.00
2018-11-04T03:11:32.289Z,0.00
2018-11-04T03:12:32.286Z,0.00
2018-11-04T03:13:32.313Z,0.00
2018-11-04T03:14:32.308Z,0.00
2018-11-04T03:15:32.274Z,0.00
2018-11-04T03:16:32.269Z,0.00
2018-11-04T03:17:32.269Z,0.00
2018-11-04T03:18:32.262Z,0.00
2018-11-04T03:19:32.288Z,0.00
2018-11-04T03:20:32.257Z,0.00
2018-11-04T03:21:32.254Z,0.00
2018-11-04T03:22:32.250Z,0.00
2018-11-04T03:23:32.244Z,0.00
2018-11-04T03:24:32.313Z,0.00
2018-11-04T03:25:32.239Z,0.00
2018-11-04T03:26:32.233Z,0.00
2018-11-04T03:27:32.231Z,0.00
2018-11-04T03:28:32.227Z,0.00
2018-11-04T03:29:32.251Z,0.00
2018-11-04T03:30:32.218Z,0.00
2018-11-04T03:31:32.219Z,0.00
2018-11-04T03:32:32.215Z,0.00
2018-11-04T03:33:32.212Z,0.00
2018-11-04T03:34:32.235Z,0.00
2018-11-04T03:35:32.205Z,0.00
2018-11-04T03:36:32.199Z,0.00
2018-11-04T03:37:32.194Z,0.00
2018-11-04T03:38:32.191Z,0.00
2018-11-04T03:39:32.215Z,0.00
2018-11-04T03:40:32.180Z,0.00
2018-11-04T03:41:32.183Z,0.00
2018-11-04T03:42:32.179Z,0.00
2018-11-04T03:43:32.175Z,0.00
2018-11-04T03:44:32.199Z,0.00
2018-11-04T03:45:32.166Z,0.00
2018-11-04T03:46:32.167Z,0.00
2018-11-04T03:47:32.159Z,0.00
2018-11-04T03:48:32.156Z,0.00
2018-11-04T03:49:32.215Z,0.00
2018-11-04T03:50:32.150Z,0.00
2018-11-04T03:51:32.149Z,0.00
2018-11-04T03:52:32.144Z,0.00
2018-11-04T03:53:32.140Z,0.00
2018-11-04T03:54:32.166Z,0.00
2018-11-04T03:55:32.132Z,0.00
2018-11-04T03:56:32.140Z,0.00
2018-11-04T03:57:32.123Z,0.00
2018-11-04T03:58:32.123Z,0.00
2018-11-04T03:59:32.147Z,0.00
2018-11-04T04:00:32.112Z,0.00
2018-11-04T04:01:32.112Z,0.00
2018-11-04T04:02:32.108Z,0.00
2018-11-04T04:03:32.130Z,0.00
2018-11-04T04:04:32.145Z,0.00
2018-11-04T04:05:32.129Z,0.00
2018-11-04T04:06:32.092Z,0.00
2018-11-04T04:07:32.089Z,0.00
2018-11-04T04:08:32.089Z,0.00
2018-11-04T04:09:32.111Z,0.00
2018-11-04T04:10:32.076Z,0.00
2018-11-04T04:11:32.077Z,0.00
2018-11-04T04:12:32.073Z,0.00
2018-11-04T04:13:32.067Z,0.00
2018-11-04T04:14:32.094Z,0.00
2018-11-04T04:15:32.056Z,0.00
2018-11-04T04:16:32.059Z,0.00
2018-11-04T04:17:32.056Z,0.00
2018-11-04T04:18:32.049Z,0.00
2018-11-04T04:19:32.078Z,0.00
2018-11-04T04:20:32.040Z,0.00
2018-11-04T04:21:32.040Z,0.00
2018-11-04T04:22:32.036Z,0.00
2018-11-04T04:23:32.034Z,0.00
2018-11-04T04:24:32.059Z,0.00
2018-11-04T04:25:32.020Z,0.00
2018-11-04T04:26:32.020Z,0.00
2018-11-04T04:27:32.016Z,0.00
2018-11-04T04:28:32.015Z,0.00
2018-11-04T04:29:32.040Z,0.00
2018-11-04T04:30:32.008Z,0.00
2018-11-04T04:31:31.995Z,0.00
2018-11-04T04:32:32.003Z,0.00
2018-11-04T04:33:31.997Z,0.00
2018-11-04T04:34:32.021Z,0.00
2018-11-04T04:35:31.989Z,0.00
2018-11-04T04:36:31.984Z,0.00
2018-11-04T04:37:31.980Z,0.00
2018-11-04T04:38:31.974Z,0.00
2018-11-04T04:39:32.006Z,0.00
2018-11-04T04:40:31.974Z,0.00
2018-11-04T04:41:31.964Z,0.00
2018-11-04T04:42:31.965Z,0.00
2018-11-04T04:43:31.964Z,0.00
2018-11-04T04:44:31.985Z,0.00
2018-11-04T04:45:31.954Z,0.00
2018-11-04T04:46:31.950Z,0.00
2018-11-04T04:47:31.945Z,0.00
2018-11-04T04:48:31.942Z,0.00
2018-11-04T04:49:31.967Z,0.00
2018-11-04T04:50:31.933Z,0.00
2018-11-04T04:51:31.928Z,0.00
2018-11-04T04:52:31.933Z,0.00
2018-11-04T04:53:31.925Z,0.00
2018-11-04T04:54:31.953Z,0.00
2018-11-04T04:55:31.917Z,0.00
2018-11-04T04:56:31.910Z,0.00
2018-11-04T04:57:31.919Z,0.00
2018-11-04T04:58:31.898Z,0.00
2018-11-04T04:59:31.935Z,0.00
2018-11-04T05:00:31.898Z,0.00
2018-11-04T05:01:31.897Z,0.00
2018-11-04T05:02:31.899Z,0.00
2018-11-04T05:03:31.886Z,0.00
2018-11-04T05:04:31.909Z,0.00
2018-11-04T05:05:31.882Z,0.00
2018-11-04T05:06:31.876Z,0.00
2018-11-04T05:07:31.875Z,0.00
2018-11-04T05:08:31.870Z,0.00
2018-11-04T05:09:31.891Z,0.00
2018-11-04T05:10:31.862Z,0.00
2018-11-04T05:11:31.858Z,0.00
2018-11-04T05:12:31.856Z,0.00
2018-11-04T05:13:31.851Z,0.00
2018-11-04T05:14:31.872Z,0.00
2018-11-04T05:15:31.842Z,0.00
2018-11-04T05:16:31.839Z,0.00
2018-11-04T05:17:31.838Z,0.00
2018-11-04T05:18:31.831Z,0.00
2018-11-04T05:19:31.855Z,0.00
2018-11-04T05:20:31.826Z,0.00
2018-11-04T05:21:31.818Z,0.00
2018-11-04T05:22:31.818Z,0.00
2018-11-04T05:23:31.812Z,0.00
2018-11-04T05:24:31.835Z,0.00
2018-11-04T05:25:31.808Z,0.00
2018-11-04T05:26:31.799Z,0.00
2018-11-04T05:27:31.799Z,0.00
2018-11-04T05:28:31.795Z,0.00
2018-11-04T05:29:31.820Z,0.00
2018-11-04T05:30:31.787Z,0.00
2018-11-04T05:31:31.783Z,0.00
2018-11-04T05:32:31.783Z,0.00
2018-11-04T05:33:31.779Z,0.00
2018-11-04T05:34:31.809Z,0.00
2018-11-04T05:35:31.774Z,0.00
2018-11-04T05:36:31.766Z,0.00
2018-11-04T05:37:31.763Z,0.00
2018-11-04T05:38:31.778Z,0.00
2018-11-04T05:39:31.784Z,0.00
2018-11-04T05:40:31.757Z,0.00
2018-11-04T05:41:31.752Z,0.00
2018-11-04T05:42:31.743Z,0.00
2018-11-04T05:43:31.749Z,0.00
2018-11-04T05:44:31.768Z,0.00
2018-11-04T05:45:31.735Z,0.00
2018-11-04T05:46:31.732Z,0.00
2018-11-04T05:47:31.727Z,0.00
2018-11-04T05:48:31.725Z,0.00
2018-11-04T05:49:31.747Z,0.00
2018-11-04T05:50:31.718Z,0.00
2018-11-04T05:51:31.711Z,0.00
2018-11-04T05:52:31.710Z,0.00
2018-11-04T05:53:31.711Z,0.00
2018-11-04T05:54:31.733Z,0.00
2018-11-04T05:55:31.701Z,0.00
2018-11-04T05:56:31.698Z,0.00
2018-11-04T05:57:31.692Z,0.00
2018-11-04T05:58:31.693Z,0.00
2018-11-04T05:59:31.713Z,0.00
2018-11-04T06:00:31.682Z,0.00
2018-11-04T06:01:31.688Z,0.00
2018-11-04T06:02:31.678Z,0.00
2018-11-04T06:03:31.676Z,0.00
2018-11-04T06:04:31.707Z,5.63
2018-11-04T06:05:31.665Z,5.63
2018-11-04T06:06:31.660Z,5.63
2018-11-04T06:07:31.652Z,5.63
2018-11-04T06:08:31.654Z,5.63
2018-11-04T06:09:31.686Z,5.63
2018-11-04T06:10:31.647Z,5.63
2018-11-04T06:11:31.638Z,5.63
2018-11-04T06:12:31.645Z,11.25
2018-11-04T06:13:31.640Z,11.25
2018-11-04T06:14:31.667Z,11.25
2018-11-04T06:15:31.629Z,11.25
2018-11-04T06:16:31.629Z,11.25
2018-11-04T06:17:31.621Z,11.25
2018-11-04T06:18:31.618Z,16.88
2018-11-04T06:19:31.700Z,16.88
2018-11-04T06:20:31.623Z,16.88
2018-11-04T06:21:31.612Z,16.88
2018-11-04T06:22:31.597Z,22.50
2018-11-04T06:23:31.600Z,22.50
2018-11-04T06:24:31.635Z,22.50
2018-11-04T06:25:31.593Z,22.50
2018-11-04T06:26:31.604Z,28.13
2018-11-04T06:27:31.585Z,28.13
2018-11-04T06:28:31.582Z,28.13
2018-11-04T06:29:31.611Z,33.75
2018-11-04T06:30:31.578Z,33.75
2018-11-04T06:31:31.576Z,39.38
2018-11-04T06:32:31.575Z,39.38
2018-11-04T06:33:31.563Z,39.38
2018-11-04T06:34:31.639Z,39.38
2018-11-04T06:35:31.555Z,39.38
2018-11-04T06:36:31.559Z,39.38
2018-11-04T06:37:31.555Z,39.38
2018-11-04T06:38:31.550Z,39.38
2018-11-04T06:39:31.574Z,45.00
2018-11-04T06:40:31.544Z,45.00
2018-11-04T06:41:31.543Z,45.00
2018-11-04T06:42:31.535Z,45.00
2018-11-04T06:43:31.535Z,45.00
2018-11-04T06:44:31.555Z,45.00
2018-11-04T06:45:31.526Z,50.63
2018-11-04T06:46:31.519Z,50.63
2018-11-04T06:47:31.556Z,56.25
2018-11-04T06:48:31.515Z,61.88
2018-11-04T06:49:31.590Z,61.88
2018-11-04T06:50:31.506Z,67.50
2018-11-04T06:51:31.506Z,67.50
2018-11-04T06:52:31.503Z,67.50
2018-11-04T06:53:31.510Z,73.13
2018-11-04T06:54:31.523Z,78.75
2018-11-04T06:55:31.490Z,78.75
2018-11-04T06:56:31.490Z,78.75
2018-11-04T06:57:31.487Z,84.38
2018-11-04T06:58:31.480Z,90.00
2018-11-04T06:59:31.508Z,90.00
2018-11-04T07:00:31.477Z,90.00
2018-11-04T07:01:31.470Z,90.00
2018-11-04T07:02:31.469Z,90.00
2018-11-04T07:03:31.463Z,95.63
2018-11-04T07:04:31.457Z,95.63
2018-11-04T07:05:31.488Z,95.63
2018-11-04T07:06:31.455Z,101.25
2018-11-04T07:07:31.459Z,95.63
2018-11-04T07:08:31.453Z,95.63
2018-11-04T07:09:31.446Z,95.63
2018-11-04T07:10:31.471Z,95.63
2018-11-04T07:11:31.440Z,95.63
2018-11-04T07:12:31.437Z,101.25
2018-11-04T07:13:31.437Z,101.25
2018-11-04T07:14:31.459Z,95.63
2018-11-04T07:15:31.425Z,90.00
2018-11-04T07:16:31.448Z,90.00
2018-11-04T07:17:31.419Z,106.88
2018-11-04T07:18:31.415Z,118.13
2018-11-04T07:19:31.414Z,129.38
2018-11-04T07:20:31.435Z,129.38
2018-11-04T07:21:31.409Z,129.38
2018-11-04T07:22:31.400Z,129.38
2018-11-04T07:23:31.396Z,129.38
2018-11-04T07:24:31.397Z,129.38
2018-11-04T07:25:31.435Z,129.38
2018-11-04T07:26:31.391Z,123.75
2018-11-04T07:27:31.384Z,118.13
2018-11-04T07:28:31.385Z,118.13
2018-11-04T07:29:31.384Z,118.13
2018-11-04T07:30:31.404Z,135.00
2018-11-04T07:31:31.373Z,140.63
2018-11-04T07:32:31.368Z,151.88
2018-11-04T07:33:31.369Z,157.50
2018-11-04T07:34:31.366Z,157.50
2018-11-04T07:35:31.389Z,163.13
2018-11-04T07:36:31.354Z,151.88
2018-11-04T07:37:31.352Z,146.25
2018-11-04T07:38:31.349Z,146.25
2018-11-04T07:39:31.345Z,151.88
2018-11-04T07:40:31.380Z,157.50
2018-11-04T07:41:31.341Z,180.00
2018-11-04T07:42:31.343Z,180.00
2018-11-04T07:43:31.333Z,174.38
2018-11-04T07:44:31.333Z,174.38
2018-11-04T07:45:31.402Z,174.38
2018-11-04T07:46:31.330Z,168.75
2018-11-04T07:47:31.321Z,168.75
2018-11-04T07:48:31.317Z,151.88
2018-11-04T07:49:31.317Z,151.88
2018-11-04T07:50:31.395Z,140.63
2018-11-04T07:51:31.340Z,135.00
2018-11-04T07:52:31.306Z,123.75
2018-11-04T07:53:31.307Z,118.13
2018-11-04T07:54:31.298Z,118.13
2018-11-04T07:55:31.327Z,118.13
2018-11-04T07:56:31.293Z,112.50
2018-11-04T07:57:31.287Z,112.50
2018-11-04T07:58:31.290Z,118.13
2018-11-04T07:59:31.287Z,129.38
2018-11-04T08:00:31.309Z,135.00
2018-11-04T08:01:31.277Z,140.63
2018-11-04T08:02:31.274Z,140.63
2018-11-04T08:03:31.499Z,146.25
2018-11-04T08:04:31.271Z,151.88
2018-11-04T08:05:31.294Z,157.50
2018-11-04T08:06:31.262Z,163.13
2018-11-04T08:07:31.259Z,163.13
2018-11-04T08:08:31.255Z,174.38
2018-11-04T08:09:31.258Z,185.63
2018-11-04T08:10:31.279Z,196.88
2018-11-04T08:11:31.247Z,202.50
2018-11-04T08:12:31.246Z,196.88
2018-11-04T08:13:31.285Z,196.88
2018-11-04T08:14:31.238Z,202.50
2018-11-04T08:15:31.269Z,213.75
2018-11-04T08:16:31.235Z,208.13
2018-11-04T08:17:31.922Z,208.13
2018-11-04T08:18:31.226Z,213.75
2018-11-04T08:19:31.222Z,219.38
2018-11-04T08:20:31.252Z,219.38
2018-11-04T08:21:31.290Z,225.00
2018-11-04T08:22:31.215Z,225.00
2018-11-04T08:23:31.211Z,225.00
2018-11-04T08:24:31.201Z,236.25
2018-11-04T08:25:31.243Z,241.88
2018-11-04T08:26:31.203Z,247.50
2018-11-04T08:27:31.197Z,247.50
2018-11-04T08:28:31.195Z,241.88
2018-11-04T08:29:31.195Z,241.88
2018-11-04T08:30:31.224Z,241.88
2018-11-04T08:31:31.191Z,241.88
2018-11-04T08:32:31.184Z,247.50
2018-11-04T08:33:31.186Z,247.50
2018-11-04T08:34:33.301Z,236.25
2018-11-04T08:35:31.203Z,241.88
2018-11-04T08:36:31.186Z,247.50
2018-11-04T08:37:31.171Z,264.38
2018-11-04T08:38:31.174Z,286.88
2018-11-04T08:39:31.163Z,298.13
2018-11-04T08:40:31.195Z,298.13
2018-11-04T08:41:31.159Z,303.75
2018-11-04T08:42:31.156Z,309.38
2018-11-04T08:43:31.152Z,315.00
2018-11-04T08:44:31.148Z,326.25
2018-11-04T08:45:31.189Z,326.25
2018-11-04T08:46:31.146Z,326.25
2018-11-04T08:47:31.145Z,331.88
2018-11-04T08:48:31.140Z,331.88
2018-11-04T08:49:31.133Z,326.25
2018-11-04T08:50:31.166Z,303.75
2018-11-04T08:51:31.124Z,303.75
2018-11-04T08:52:31.197Z,309.38
2018-11-04T08:53:31.123Z,315.00
2018-11-04T08:54:31.121Z,315.00
2018-11-04T08:55:31.146Z,292.50
2018-11-04T08:56:31.117Z,292.50
2018-11-04T08:57:31.110Z,303.75
2018-11-04T08:58:31.113Z,315.00
2018-11-04T08:59:31.107Z,303.75
2018-11-04T09:00:31.129Z,298.13
2018-11-04T09:01:31.108Z,303.75
2018-11-04T09:02:31.100Z,315.00
2018-11-04T09:03:31.099Z,315.00
2018-11-04T09:04:31.098Z,320.63
2018-11-04T09:05:31.117Z,315.00
2018-11-04T09:06:31.172Z,286.88
2018-11-04T09:07:31.092Z,281.25
2018-11-04T09:08:31.085Z,292.50
2018-11-04T09:09:31.086Z,292.50
2018-11-04T09:10:31.111Z,298.13
2018-11-04T09:11:31.076Z,309.38
2018-11-04T09:12:31.078Z,303.75
2018-11-04T09:13:31.073Z,298.13
2018-11-04T09:14:31.066Z,298.13
2018-11-04T09:15:31.097Z,298.13
2018-11-04T09:16:31.065Z,320.63
2018-11-04T09:17:31.067Z,331.88
2018-11-04T09:18:31.073Z,326.25
2018-11-04T09:19:31.055Z,315.00
2018-11-04T09:20:31.088Z,337.50
2018-11-04T09:21:31.053Z,348.75
2018-11-04T09:22:31.133Z,337.50
2018-11-04T09:23:31.104Z,337.50
2018-11-04T09:24:31.052Z,343.13
2018-11-04T09:25:31.141Z,348.75
2018-11-04T09:26:31.038Z,360.00
2018-11-04T09:27:31.043Z,360.00
2018-11-04T09:28:31.037Z,360.00
2018-11-04T09:29:31.037Z,360.00
2018-11-04T09:30:31.062Z,354.38
2018-11-04T09:31:31.034Z,354.38
2018-11-04T09:32:31.027Z,371.25
2018-11-04T09:33:31.030Z,365.63
2018-11-04T09:34:31.033Z,360.00
2018-11-04T09:35:31.242Z,343.13
2018-11-04T09:36:31.063Z,348.75
2018-11-04T09:37:31.011Z,365.63
2018-11-04T09:38:31.014Z,354.38
2018-11-04T09:39:31.018Z,348.75
2018-11-04T09:40:31.051Z,365.63
2018-11-04T09:41:31.010Z,371.25
2018-11-04T09:42:31.010Z,365.63
2018-11-04T09:43:31.006Z,343.13
2018-11-04T09:44:31.005Z,354.38
2018-11-04T09:45:31.031Z,354.38
2018-11-04T09:46:30.998Z,360.00
2018-11-04T09:47:30.996Z,365.63
2018-11-04T09:48:31.005Z,371.25
2018-11-04T09:49:30.996Z,371.25
2018-11-04T09:50:31.022Z,315.00
2018-11-04T09:51:30.996Z,331.88
2018-11-04T09:52:30.990Z,371.25
2018-11-04T09:53:30.986Z,388.13
2018-11-04T09:54:30.988Z,410.63
2018-11-04T09:55:31.011Z,410.63
2018-11-04T09:56:31.063Z,405.00
2018-11-04T09:57:30.980Z,405.00
2018-11-04T09:58:31.007Z,399.38
2018-11-04T09:59:30.975Z,399.38
2018-11-04T10:00:30.976Z,410.63
2018-11-04T10:01:30.999Z,416.25
2018-11-04T10:02:30.964Z,421.88
2018-11-04T10:03:30.971Z,416.25
2018-11-04T10:04:30.969Z,416.25
2018-11-04T10:05:30.971Z,410.63
2018-11-04T10:06:30.992Z,399.38
2018-11-04T10:07:30.959Z,393.75
2018-11-04T10:08:30.960Z,399.38
2018-11-04T10:09:30.956Z,399.38
2018-11-04T10:10:30.962Z,393.75
2018-11-04T10:11:30.993Z,399.38
2018-11-04T10:12:30.953Z,405.00
2018-11-04T10:13:30.957Z,421.88
2018-11-04T10:14:30.946Z,427.50
2018-11-04T10:15:30.943Z,433.13
2018-11-04T10:16:30.975Z,427.50
2018-11-04T10:17:30.944Z,421.88
2018-11-04T10:18:30.940Z,427.50
2018-11-04T10:19:31.089Z,433.13
2018-11-04T10:20:31.201Z,421.88
2018-11-04T10:21:30.963Z,421.88
2018-11-04T10:22:30.936Z,427.50
2018-11-04T10:23:30.934Z,427.50
2018-11-04T10:24:30.932Z,433.13
2018-11-04T10:25:30.930Z,433.13
2018-11-04T10:26:30.957Z,438.75
2018-11-04T10:27:30.925Z,410.63
2018-11-04T10:28:30.924Z,382.50
2018-11-04T10:29:30.920Z,433.13
2018-11-04T10:30:31.020Z,438.75
2018-11-04T10:31:31.101Z,438.75
2018-11-04T10:32:30.920Z,450.00
2018-11-04T10:33:30.911Z,466.88
2018-11-04T10:34:30.916Z,455.63
2018-11-04T10:35:30.914Z,416.25
2018-11-04T10:36:30.937Z,416.25
2018-11-04T10:37:30.912Z,427.50
2018-11-04T10:38:30.905Z,421.88
2018-11-04T10:39:30.905Z,388.13
2018-11-04T10:40:30.901Z,376.88
2018-11-04T10:41:30.930Z,388.13
2018-11-04T10:42:30.898Z,399.38
2018-11-04T10:43:30.901Z,388.13
2018-11-04T10:44:30.897Z,382.50
2018-11-04T10:45:30.895Z,388.13
2018-11-04T10:46:30.921Z,382.50
2018-11-04T10:47:30.892Z,382.50
2018-11-04T10:48:30.889Z,405.00
2018-11-04T10:49:31.004Z,410.63
2018-11-04T10:50:30.886Z,405.00
2018-11-04T10:51:30.909Z,376.88
2018-11-04T10:52:30.946Z,393.75
2018-11-04T10:53:31.339Z,376.88
2018-11-04T10:54:31.277Z,421.88
2018-11-04T10:55:33.315Z,421.88
2018-11-04T10:56:34.383Z,427.50
2018-11-04T10:57:34.809Z,433.13
2018-11-04T10:58:31.471Z,371.25
2018-11-04T10:59:31.476Z,365.63
2018-11-04T11:00:37.720Z,348.75
2018-11-04T11:01:33.306Z,337.50
2018-11-04T11:02:35.765Z,360.00
2018-11-04T11:03:31.750Z,382.50
2018-11-04T11:04:33.354Z,399.38
2018-11-04T11:05:31.505Z,410.63
2018-11-04T11:06:31.840Z,388.13
2018-11-04T11:07:34.156Z,343.13
2018-11-04T11:08:33.368Z,326.25
2018-11-04T11:09:31.299Z,331.88
2018-11-04T11:10:31.824Z,376.88
2018-11-04T11:11:31.188Z,371.25
2018-11-04T11:12:31.467Z,388.13
2018-11-04T11:13:32.324Z,410.63
2018-11-04T11:14:30.952Z,421.88
2018-11-04T11:15:33.149Z,427.50
2018-11-04T11:16:31.144Z,466.88
2018-11-04T11:17:31.388Z,478.13
2018-11-04T11:18:31.738Z,461.25
2018-11-04T11:19:33.962Z,444.38
2018-11-04T11:20:32.305Z,444.38
2018-11-04T11:21:31.127Z,438.75
2018-11-04T11:22:31.944Z,466.88
2018-11-04T11:23:31.725Z,478.13
2018-11-04T11:24:30.830Z,483.75
2018-11-04T11:25:30.822Z,483.75
2018-11-04T11:26:30.854Z,472.50
2018-11-04T11:27:31.453Z,461.25
2018-11-04T11:28:30.816Z,450.00
2018-11-04T11:29:30.819Z,450.00
2018-11-04T11:30:30.822Z,421.88
2018-11-04T11:31:30.851Z,421.88
2018-11-04T11:32:30.813Z,450.00
2018-11-04T11:33:32.806Z,472.50
2018-11-04T11:34:30.824Z,478.13
2018-11-04T11:35:30.806Z,483.75
2018-11-04T11:36:30.836Z,495.00
2018-11-04T11:37:30.810Z,500.63
2018-11-04T11:38:30.820Z,483.75
2018-11-04T11:39:30.798Z,455.63
2018-11-04T11:40:30.805Z,450.00
2018-11-04T11:41:30.827Z,438.75
2018-11-04T11:42:30.791Z,421.88
2018-11-04T11:43:30.800Z,410.63
2018-11-04T11:44:30.791Z,399.38
2018-11-04T11:45:30.790Z,405.00
2018-11-04T11:46:30.817Z,438.75
2018-11-04T11:47:30.788Z,466.88
2018-11-04T11:48:30.782Z,478.13
2018-11-04T11:49:30.787Z,478.13
2018-11-04T11:50:30.782Z,483.75
2018-11-04T11:51:30.850Z,489.38
2018-11-04T11:52:30.841Z,495.00
2018-11-04T11:53:30.776Z,500.63
2018-11-04T11:54:30.774Z,511.88
2018-11-04T11:55:30.770Z,506.25
2018-11-04T11:56:30.808Z,483.75
2018-11-04T11:57:30.771Z,483.75
2018-11-04T11:58:30.767Z,483.75
2018-11-04T11:59:30.771Z,483.75
2018-11-04T12:00:30.766Z,472.50
2018-11-04T12:01:30.791Z,466.88
2018-11-04T12:02:30.767Z,466.88
2018-11-04T12:03:30.771Z,472.50
2018-11-04T12:04:30.761Z,466.88
2018-11-04T12:05:30.757Z,455.63
2018-11-04T12:06:30.792Z,438.75
2018-11-04T12:07:30.756Z,410.63
2018-11-04T12:08:30.746Z,393.75
2018-11-04T12:09:30.757Z,393.75
2018-11-04T12:10:30.780Z,382.50
2018-11-04T12:11:30.752Z,393.75
2018-11-04T12:12:30.750Z,399.38
2018-11-04T12:13:30.748Z,410.63
2018-11-04T12:14:30.748Z,421.88
2018-11-04T12:15:30.772Z,410.63
2018-11-04T12:16:30.744Z,416.25
2018-11-04T12:17:30.772Z,399.38
2018-11-04T12:18:30.741Z,410.63
2018-11-04T12:19:30.741Z,416.25
2018-11-04T12:20:30.768Z,416.25
2018-11-04T12:21:30.736Z,433.13
2018-11-04T12:22:30.737Z,444.38
2018-11-04T12:23:30.739Z,461.25
2018-11-04T12:24:30.730Z,461.25
2018-11-04T12:25:30.761Z,450.00
2018-11-04T12:26:30.728Z,433.13
2018-11-04T12:27:30.725Z,416.25
2018-11-04T12:28:30.729Z,416.25
2018-11-04T12:29:30.729Z,416.25
2018-11-04T12:30:30.752Z,399.38
2018-11-04T12:31:30.724Z,388.13
2018-11-04T12:32:30.727Z,393.75
2018-11-04T12:33:30.720Z,393.75
2018-11-04T12:34:30.719Z,388.13
2018-11-04T12:35:30.748Z,371.25
2018-11-04T12:36:30.717Z,365.63
2018-11-04T12:37:30.717Z,365.63
2018-11-04T12:38:30.716Z,360.00
2018-11-04T12:39:30.714Z,376.88
2018-11-04T12:40:30.741Z,382.50
2018-11-04T12:41:30.713Z,405.00
2018-11-04T12:42:30.807Z,416.25
2018-11-04T12:43:30.712Z,382.50
2018-11-04T12:44:30.706Z,365.63
2018-11-04T12:45:30.789Z,354.38
2018-11-04T12:46:30.706Z,343.13
2018-11-04T12:47:30.706Z,360.00
2018-11-04T12:48:30.705Z,354.38
2018-11-04T12:49:30.702Z,331.88
2018-11-04T12:50:30.982Z,320.63
2018-11-04T12:51:30.698Z,315.00
2018-11-04T12:52:30.698Z,320.63
2018-11-04T12:53:30.702Z,331.88